Página principal
METAR-TAF:

METAR-TAF

Aeroportos :

Cartum, Sudão

Aeroporto Internacional de Cartum

latitude: 15-36N, longitude: 032-33E, altura: 382 m

Observação actual do tempo

O boletim foi feito há 24 minutos, às 23:30 UTC
Vento 3 kt de oes-sudoeste
Temperatura 31°C
Humidade 49%
Pressão 1009 hPa
Visibilidade 10 km ou mais
sem nuvens abaixo de 1500 metros e sem cumulonimbus

METAR: HSSS 182330Z 25003KT CAVOK 31/19 Q1009 NOSIG

Hora: 02:54 (23:54 UTC)

Previsão

O boletim foi feito há 54 minutos, às 23:00 UTC
Previsão válida de 19 às 00 UTC a 20 às 06 UTC
Vento 6 kt de sul
Visibilidade 10 km ou mais
Nuvens dispersasa uma altura de 4000 ft
Nuvens fragmentadasa uma altura de 14000 ft
Temporariamente
de 19 às 00 UTC a 19 às 06 UTC
Vento 12 kt de su-sudeste com rajadas de 22 kt
Visibilidade: 6000 m
Poucas nuvensa uma altura de 4500 ft, Cumulonimbus.
trovoada, chuva

TAF: HSSS 182300Z 1900/2006 18006KT 9999 SCT040 BKN140 TEMPO 1900/1906 15012G22KT 6000 TSRA FEW045CB

Observações e previsões do tempo de mais de 4000 aeroportos (mensagens METAR e TAF).

As estações disponíveis são os pontos amarelos e vermelhos sobre o mapa.

Mova o rato sobre o mapa para ver o nome da estação.

Depois clique no ponto para visualizar as observações e previsões meteorológicas.

Para alterar o mapa : clique nos botões verdes com uma cruz preta para aumentar o zoom; no botão verde com uma pitada de zoom; ou nas setas verdes para mapas adjacentes.


METAR-TAF: